createdAt,value
2022-08-22T00:00:42.901Z,92.43
2022-08-22T00:01:39.779Z,92.05
2022-08-22T00:02:39.850Z,92.33
2022-08-22T00:02:43.289Z,84.58
2022-08-22T00:02:53.534Z,82.06
2022-08-22T00:02:54.995Z,90.46
2022-08-22T00:02:59.906Z,83.85
2022-08-22T00:03:00.127Z,86.18
2022-08-22T00:03:04.348Z,75.14
2022-08-22T00:03:11.075Z,92.24
2022-08-22T00:03:39.832Z,92.24
2022-08-22T00:04:39.858Z,92.43
2022-08-22T00:05:39.882Z,92.43
2022-08-22T00:06:39.910Z,92.33
2022-08-22T00:07:39.939Z,92.33
2022-08-22T00:08:40.008Z,93.25
2022-08-22T00:09:39.991Z,92.86
2022-08-22T00:10:40.020Z,92.68
2022-08-22T00:11:40.046Z,93.06
2022-08-22T00:12:40.068Z,92.72
2022-08-22T00:13:40.096Z,93.63
2022-08-22T00:14:40.132Z,93.63
2022-08-22T00:15:43.444Z,93.44
2022-08-22T00:16:40.178Z,93.44
2022-08-22T00:17:40.205Z,93.54
2022-08-22T00:18:40.229Z,93.44
2022-08-22T00:19:40.256Z,92.96
2022-08-22T00:20:40.286Z,93.35
2022-08-22T00:21:40.306Z,93.25
2022-08-22T00:22:40.363Z,93.35
2022-08-22T00:23:40.366Z,93.63
2022-08-22T00:24:40.391Z,93.73
2022-08-22T00:25:40.418Z,93.82
2022-08-22T00:26:45.113Z,94.40
2022-08-22T00:27:43.717Z,94.40
2022-08-22T00:28:40.499Z,94.49
2022-08-22T00:29:40.526Z,94.59
2022-08-22T00:30:40.550Z,94.79
2022-08-22T00:31:40.576Z,94.98
2022-08-22T00:32:40.604Z,94.98
2022-08-22T00:33:40.630Z,94.69
2022-08-22T00:34:40.656Z,95.26
2022-08-22T00:35:47.852Z,95.65
2022-08-22T00:37:45.177Z,95.36
2022-08-22T00:38:44.729Z,95.07
2022-08-22T00:40:38.209Z,95.65
2022-08-22T00:41:37.689Z,95.26
2022-08-22T00:43:41.710Z,96.03
2022-08-22T00:44:41.749Z,96.22
2022-08-22T00:46:46.221Z,95.89
2022-08-22T00:47:45.775Z,96.03
2022-08-22T00:49:50.261Z,95.84
2022-08-22T00:50:49.817Z,95.41
2022-08-22T00:52:53.829Z,95.84
2022-08-22T00:53:53.851Z,96.03
2022-08-22T00:55:58.344Z,96.03
2022-08-22T00:56:57.887Z,95.89
2022-08-22T00:59:18.026Z,96.47
2022-08-22T01:00:01.931Z,95.98
2022-08-22T01:02:06.428Z,96.08
2022-08-22T01:03:05.970Z,96.37
2022-08-22T01:05:10.012Z,96.94
2022-08-22T01:06:10.032Z,96.75
2022-08-22T01:08:14.531Z,97.04
2022-08-22T01:09:14.074Z,97.23
2022-08-22T01:11:18.093Z,97.52
2022-08-22T01:12:18.115Z,97.71
2022-08-22T01:14:34.569Z,97.90
2022-08-22T01:15:22.151Z,97.90
2022-08-22T01:17:26.653Z,98.28
2022-08-22T01:18:26.195Z,98.28
2022-08-22T01:20:19.136Z,98.77
2022-08-22T01:21:20.800Z,98.57
2022-08-22T01:23:23.649Z,98.77
2022-08-22T01:24:24.171Z,98.19
2022-08-22T01:26:16.826Z,98.48
2022-08-22T01:27:16.848Z,99.24
2022-08-22T01:28:16.869Z,99.73
2022-08-22T01:29:16.900Z,99.34
2022-08-22T01:30:16.920Z,99.73
2022-08-22T01:31:16.948Z,99.73
2022-08-22T01:32:16.974Z,99.99
2022-08-22T01:33:17.004Z,99.82
2022-08-22T01:34:17.027Z,99.99
2022-08-22T01:35:17.053Z,99.82
2022-08-22T01:36:17.079Z,99.96
2022-08-22T01:37:17.109Z,99.99
2022-08-22T01:38:17.134Z,99.99
2022-08-22T01:39:17.158Z,99.99
2022-08-22T01:40:17.218Z,99.99
2022-08-22T01:41:17.212Z,99.99
2022-08-22T01:42:17.244Z,99.99
2022-08-22T01:43:17.263Z,99.99
2022-08-22T01:44:17.290Z,99.99
2022-08-22T01:45:17.321Z,99.99
2022-08-22T01:46:20.745Z,99.99
2022-08-22T01:47:17.365Z,99.99
2022-08-22T01:48:17.393Z,99.99
2022-08-22T01:49:17.421Z,99.99
2022-08-22T01:50:17.449Z,99.99
2022-08-22T01:51:17.474Z,99.99
2022-08-22T01:52:19.492Z,99.99
2022-08-22T01:53:17.523Z,99.99
2022-08-22T01:54:17.550Z,99.99
2022-08-22T01:55:17.574Z,99.99
2022-08-22T01:56:17.602Z,99.99
2022-08-22T01:57:17.628Z,99.99
2022-08-22T01:58:17.657Z,99.99
2022-08-22T01:59:17.732Z,99.99
2022-08-22T02:00:17.706Z,99.99
2022-08-22T02:01:17.781Z,99.99
2022-08-22T02:02:17.759Z,99.99
2022-08-22T02:03:17.784Z,99.99
2022-08-22T02:04:17.811Z,99.99
2022-08-22T02:05:17.837Z,99.99
2022-08-22T02:06:17.862Z,99.99
2022-08-22T02:07:17.890Z,99.99
2022-08-22T02:08:17.914Z,99.99
2022-08-22T02:09:17.942Z,99.99
2022-08-22T02:10:17.966Z,99.99
2022-08-22T02:11:17.994Z,99.99
2022-08-22T02:12:21.583Z,99.99
2022-08-22T02:13:18.047Z,99.99
2022-08-22T02:14:18.071Z,99.99
2022-08-22T02:15:18.097Z,99.99
2022-08-22T02:16:18.121Z,99.99
2022-08-22T02:17:18.148Z,99.99
2022-08-22T02:18:18.181Z,99.99
2022-08-22T02:19:18.201Z,99.99
2022-08-22T02:20:18.231Z,99.99
2022-08-22T02:21:18.253Z,99.99
2022-08-22T02:22:18.278Z,99.99
2022-08-22T02:23:18.304Z,99.99
2022-08-22T02:24:18.330Z,99.99
2022-08-22T02:25:18.358Z,99.99
2022-08-22T02:26:18.382Z,99.99
2022-08-22T02:27:18.409Z,99.99
2022-08-22T02:28:18.434Z,99.99
2022-08-22T02:29:18.463Z,99.99
2022-08-22T02:30:18.486Z,99.99
2022-08-22T02:31:18.511Z,99.99
2022-08-22T02:32:18.537Z,99.99
2022-08-22T02:33:18.568Z,99.99
2022-08-22T02:34:18.591Z,99.99
2022-08-22T02:35:18.616Z,99.99
2022-08-22T02:36:18.641Z,99.99
2022-08-22T02:37:18.667Z,99.99
2022-08-22T02:38:18.694Z,99.99
2022-08-22T02:39:18.718Z,99.99
2022-08-22T02:40:18.778Z,99.99
2022-08-22T02:41:18.770Z,99.99
2022-08-22T02:42:18.797Z,99.99
2022-08-22T02:43:18.824Z,99.99
2022-08-22T02:44:18.848Z,99.99
2022-08-22T02:45:18.874Z,99.99
2022-08-22T02:46:18.898Z,99.99
2022-08-22T02:47:18.927Z,99.99
2022-08-22T02:48:18.949Z,99.99
2022-08-22T02:49:18.979Z,99.99
2022-08-22T02:50:19.002Z,99.99
2022-08-22T02:51:19.031Z,99.99
2022-08-22T02:52:19.054Z,99.99
2022-08-22T02:53:19.081Z,99.99
2022-08-22T02:54:19.104Z,99.99
2022-08-22T02:55:19.130Z,99.99
2022-08-22T02:56:19.157Z,99.99
2022-08-22T02:57:19.183Z,99.99
2022-08-22T02:58:19.210Z,99.99
2022-08-22T02:59:19.234Z,99.99
2022-08-22T03:00:30.647Z,99.99
2022-08-22T03:01:19.335Z,99.99
2022-08-22T03:02:19.311Z,99.99
2022-08-22T03:03:19.333Z,99.99
2022-08-22T03:04:19.362Z,99.99
2022-08-22T03:05:19.388Z,99.99
2022-08-22T03:06:19.415Z,99.99
2022-08-22T03:07:19.441Z,99.99
2022-08-22T03:08:21.120Z,99.99
2022-08-22T03:09:19.496Z,99.99
2022-08-22T03:10:19.518Z,99.99
2022-08-22T03:11:19.543Z,99.99
2022-08-22T03:12:19.569Z,99.99
2022-08-22T03:13:19.595Z,99.99
2022-08-22T03:14:19.619Z,99.99
2022-08-22T03:15:19.645Z,99.99
2022-08-22T03:16:19.670Z,99.99
2022-08-22T03:17:19.697Z,99.99
2022-08-22T03:18:19.722Z,99.99
2022-08-22T03:19:19.746Z,99.99
2022-08-22T03:20:19.773Z,99.99
2022-08-22T03:21:19.802Z,99.99
2022-08-22T03:22:19.824Z,99.99
2022-08-22T03:23:19.850Z,99.99
2022-08-22T03:24:19.874Z,99.99
2022-08-22T03:25:19.903Z,99.99
2022-08-22T03:26:19.929Z,99.99
2022-08-22T03:27:32.047Z,99.99
2022-08-22T03:28:19.979Z,99.99
2022-08-22T03:29:20.004Z,99.99
2022-08-22T03:30:20.032Z,99.99
2022-08-22T03:31:20.057Z,99.99
2022-08-22T03:32:20.081Z,99.99
2022-08-22T03:33:20.106Z,99.99
2022-08-22T03:34:20.136Z,99.99
2022-08-22T03:35:20.156Z,99.99
2022-08-22T03:36:20.181Z,99.99
2022-08-22T03:37:20.212Z,99.99
2022-08-22T03:38:20.235Z,99.99
2022-08-22T03:39:20.259Z,99.99
2022-08-22T03:40:20.356Z,99.99
2022-08-22T03:41:20.312Z,99.99
2022-08-22T03:42:20.336Z,99.99
2022-08-22T03:43:20.362Z,99.99
2022-08-22T03:44:20.388Z,99.99
2022-08-22T03:45:20.415Z,99.99
2022-08-22T03:46:20.441Z,99.99
2022-08-22T03:47:20.468Z,99.99
2022-08-22T03:48:20.489Z,99.99
2022-08-22T03:49:20.516Z,99.99
2022-08-22T03:50:20.540Z,99.99
2022-08-22T03:51:20.565Z,99.99
2022-08-22T03:52:20.593Z,99.99
2022-08-22T03:53:20.615Z,99.99
2022-08-22T03:54:20.645Z,99.99
2022-08-22T03:55:20.665Z,99.99
2022-08-22T03:56:20.692Z,99.99
2022-08-22T03:57:20.718Z,99.99
2022-08-22T03:58:27.917Z,99.99
2022-08-22T03:59:20.770Z,99.99
2022-08-22T04:00:20.795Z,99.99
2022-08-22T04:01:20.884Z,99.99
2022-08-22T04:02:31.455Z,99.99
2022-08-22T04:03:20.871Z,99.99
2022-08-22T04:04:20.896Z,99.99
2022-08-22T04:05:20.930Z,99.99
2022-08-22T04:06:20.946Z,99.99
2022-08-22T04:07:31.604Z,99.99
2022-08-22T04:08:24.318Z,99.99
2022-08-22T04:09:21.025Z,99.99
2022-08-22T04:10:21.049Z,99.99
2022-08-22T04:11:21.083Z,99.99
2022-08-22T04:12:21.100Z,99.99
2022-08-22T04:13:21.127Z,99.99
2022-08-22T04:14:21.150Z,99.99
2022-08-22T04:15:21.180Z,99.99
2022-08-22T04:16:21.200Z,99.99
2022-08-22T04:17:21.226Z,99.99
2022-08-22T04:18:21.254Z,99.99
2022-08-22T04:19:21.277Z,99.99
2022-08-22T04:20:21.302Z,99.99
2022-08-22T04:21:21.328Z,99.99
2022-08-22T04:22:21.356Z,99.99
2022-08-22T04:23:21.381Z,99.99
2022-08-22T04:24:21.402Z,99.99
2022-08-22T04:25:21.435Z,99.99
2022-08-22T04:26:21.455Z,99.99
2022-08-22T04:27:21.478Z,99.99
2022-08-22T04:28:21.504Z,99.99
2022-08-22T04:29:21.532Z,99.99
2022-08-22T04:30:21.555Z,99.99
2022-08-22T04:31:21.583Z,99.99
2022-08-22T04:32:21.607Z,99.99
2022-08-22T04:33:21.634Z,99.99
2022-08-22T04:34:21.658Z,99.99
2022-08-22T04:35:21.691Z,99.99
2022-08-22T04:36:21.708Z,99.99
2022-08-22T04:37:21.732Z,99.99
2022-08-22T04:38:21.762Z,99.99
2022-08-22T04:39:21.784Z,99.99
2022-08-22T04:40:21.905Z,99.99
2022-08-22T04:41:21.836Z,99.99
2022-08-22T04:42:33.594Z,99.99
2022-08-22T04:43:21.944Z,99.99
2022-08-22T04:44:21.912Z,99.99
2022-08-22T04:45:21.935Z,99.99
2022-08-22T04:46:21.961Z,99.99
2022-08-22T04:47:21.986Z,99.99
2022-08-22T04:48:22.013Z,99.99
2022-08-22T04:49:22.037Z,99.99
2022-08-22T04:50:22.064Z,99.99
2022-08-22T04:51:22.088Z,99.99
2022-08-22T04:52:22.115Z,99.99
2022-08-22T04:53:22.140Z,99.99
2022-08-22T04:54:22.165Z,99.99
2022-08-22T04:55:22.190Z,99.99
2022-08-22T04:56:22.215Z,99.99
2022-08-22T04:57:22.242Z,99.99
2022-08-22T04:58:22.270Z,99.99
2022-08-22T04:59:22.293Z,99.99
2022-08-22T05:00:22.318Z,99.99
2022-08-22T05:01:22.427Z,99.99
2022-08-22T05:02:22.371Z,99.99
2022-08-22T05:03:22.405Z,99.99
2022-08-22T05:04:22.420Z,99.99
2022-08-22T05:05:22.447Z,99.99
2022-08-22T05:06:22.469Z,99.99
2022-08-22T05:07:22.497Z,99.99
2022-08-22T05:08:22.522Z,99.99
2022-08-22T05:09:22.550Z,99.99
2022-08-22T05:10:22.574Z,99.99
2022-08-22T05:11:22.599Z,99.99
2022-08-22T05:12:22.630Z,99.99
2022-08-22T05:13:22.651Z,99.99
2022-08-22T05:14:22.679Z,99.99
2022-08-22T05:15:23.333Z,99.99
2022-08-22T05:16:22.728Z,99.99
2022-08-22T05:17:22.756Z,99.99
2022-08-22T05:18:22.782Z,99.99
2022-08-22T05:19:29.597Z,99.99
2022-08-22T05:20:22.841Z,99.99
2022-08-22T05:21:22.861Z,99.99
2022-08-22T05:22:22.887Z,99.99
2022-08-22T05:23:22.909Z,99.99
2022-08-22T05:24:22.942Z,99.99
2022-08-22T05:25:22.967Z,99.99
2022-08-22T05:26:22.993Z,99.99
2022-08-22T05:27:23.016Z,99.99
2022-08-22T05:28:23.044Z,99.99
2022-08-22T05:29:23.069Z,99.99
2022-08-22T05:30:23.097Z,99.99
2022-08-22T05:31:23.223Z,99.99
2022-08-22T05:32:23.157Z,99.99
2022-08-22T05:33:23.180Z,99.99
2022-08-22T05:34:23.201Z,99.99
2022-08-22T05:35:23.228Z,99.99
2022-08-22T05:36:23.256Z,99.99
2022-08-22T05:37:23.290Z,99.99
2022-08-22T05:38:23.311Z,99.99
2022-08-22T05:39:23.711Z,99.99
2022-08-22T05:40:23.506Z,99.99
2022-08-22T05:41:23.387Z,99.99
2022-08-22T05:42:23.413Z,99.99
2022-08-22T05:43:23.436Z,99.99
2022-08-22T05:44:23.468Z,99.99
2022-08-22T05:45:23.497Z,99.99
2022-08-22T05:46:27.016Z,99.99
2022-08-22T05:47:23.547Z,99.99
2022-08-22T05:48:23.573Z,99.99
2022-08-22T05:49:23.597Z,99.99
2022-08-22T05:50:23.624Z,99.99
2022-08-22T05:51:23.653Z,99.99
2022-08-22T05:52:23.680Z,99.99
2022-08-22T05:53:23.707Z,99.99
2022-08-22T05:54:33.843Z,99.99
2022-08-22T05:55:23.758Z,99.99
2022-08-22T05:56:23.800Z,99.99
2022-08-22T05:57:23.814Z,99.99
2022-08-22T05:58:23.841Z,99.99
2022-08-22T05:59:23.869Z,99.99
2022-08-22T06:00:23.895Z,99.99
2022-08-22T06:01:24.004Z,99.99
2022-08-22T06:02:23.949Z,99.99
2022-08-22T06:03:23.977Z,99.99
2022-08-22T06:04:24.000Z,99.99
2022-08-22T06:05:24.028Z,99.99
2022-08-22T06:06:24.056Z,99.99
2022-08-22T06:07:24.083Z,99.99
2022-08-22T06:08:24.111Z,99.99
2022-08-22T06:09:24.136Z,99.99
2022-08-22T06:10:24.162Z,99.99
2022-08-22T06:11:24.190Z,99.99
2022-08-22T06:12:24.220Z,99.99
2022-08-22T06:13:24.716Z,99.99
2022-08-22T06:14:24.784Z,99.99
2022-08-22T06:15:24.299Z,99.99
2022-08-22T06:16:24.332Z,99.99
2022-08-22T06:17:24.355Z,99.99
2022-08-22T06:18:24.383Z,99.49
2022-08-22T06:19:24.409Z,98.00
2022-08-22T06:20:24.442Z,95.84
2022-08-22T06:21:24.481Z,94.78
2022-08-22T06:22:24.492Z,94.30
2022-08-22T06:23:24.520Z,93.72
2022-08-22T06:24:24.552Z,92.90
2022-08-22T06:25:24.579Z,92.85
2022-08-22T06:26:24.609Z,90.68
2022-08-22T06:27:24.636Z,87.35
2022-08-22T06:28:24.666Z,86.15
2022-08-22T06:29:24.697Z,85.57
2022-08-22T06:30:24.725Z,85.86
2022-08-22T06:31:24.755Z,85.42
2022-08-22T06:32:44.351Z,85.13
2022-08-22T06:33:24.811Z,84.75
2022-08-22T06:34:24.839Z,84.94
2022-08-22T06:35:24.870Z,84.75
2022-08-22T06:36:32.069Z,83.63
2022-08-22T06:38:29.395Z,83.15
2022-08-22T06:39:28.941Z,83.63
2022-08-22T06:41:32.969Z,82.03
2022-08-22T06:42:33.007Z,81.65
2022-08-22T06:44:37.487Z,81.26
2022-08-22T06:45:37.040Z,80.68
2022-08-22T06:47:41.069Z,80.58
2022-08-22T06:48:41.091Z,80.83
2022-08-22T06:50:34.571Z,81.70
2022-08-22T06:51:34.058Z,81.70
2022-08-22T06:53:38.100Z,80.97
2022-08-22T06:54:38.118Z,80.87
2022-08-22T06:58:25.330Z,77.67
2022-08-22T06:59:24.889Z,77.28
2022-08-22T07:01:28.964Z,77.00
2022-08-22T07:02:28.944Z,77.57
2022-08-22T07:04:33.441Z,77.73
2022-08-22T07:05:32.991Z,78.11
2022-08-22T07:07:37.023Z,78.36
2022-08-22T07:08:39.121Z,79.24
2022-08-22T07:10:30.529Z,79.81
2022-08-22T07:11:30.015Z,79.81
2022-08-22T07:13:34.508Z,80.45
2022-08-22T07:14:34.061Z,80.74
2022-08-22T07:16:38.092Z,81.02
2022-08-22T07:17:40.678Z,81.32
2022-08-22T07:19:42.608Z,81.51
2022-08-22T07:20:42.159Z,81.02
2022-08-22T07:22:46.199Z,81.37
2022-08-22T07:23:49.141Z,81.90
2022-08-22T07:25:50.714Z,81.95
2022-08-22T07:26:50.262Z,82.14
2022-08-22T07:28:58.349Z,82.82
2022-08-22T07:29:54.306Z,82.14
2022-08-22T07:31:58.335Z,83.50
2022-08-22T07:33:21.281Z,82.82
2022-08-22T07:35:02.846Z,81.95
2022-08-22T07:36:02.499Z,82.18
2022-08-22T07:38:06.997Z,82.18
2022-08-22T07:39:06.548Z,82.09
2022-08-22T07:41:10.585Z,81.32
2022-08-22T07:42:10.594Z,81.12
2022-08-22T07:44:15.088Z,80.93
2022-08-22T07:45:14.645Z,81.51
2022-08-22T07:47:26.358Z,81.60
2022-08-22T07:48:25.477Z,81.32
2022-08-22T07:50:12.182Z,81.60
2022-08-22T07:51:11.665Z,80.54
2022-08-22T07:53:15.769Z,81.60
2022-08-22T07:54:15.716Z,81.70
2022-08-22T07:56:20.207Z,79.91
2022-08-22T07:57:19.759Z,79.43
2022-08-22T07:59:23.811Z,79.24
2022-08-22T08:00:23.836Z,79.24
2022-08-22T08:02:28.321Z,77.98
2022-08-22T08:03:27.876Z,78.08
2022-08-22T08:05:31.915Z,76.76
2022-08-22T08:06:31.937Z,75.99
2022-08-22T08:08:36.439Z,76.57
2022-08-22T08:09:35.976Z,76.57
2022-08-22T08:11:40.007Z,75.99
2022-08-22T08:12:40.025Z,76.18
2022-08-22T08:14:44.522Z,75.74
2022-08-22T08:15:44.073Z,75.06
2022-08-22T08:17:48.103Z,74.58
2022-08-22T08:18:48.124Z,74.77
2022-08-22T08:20:41.106Z,73.61
2022-08-22T08:21:41.101Z,73.32
2022-08-22T08:23:45.130Z,73.61
2022-08-22T08:24:45.687Z,73.80
2022-08-22T08:26:49.640Z,72.68
2022-08-22T08:27:50.462Z,72.39
2022-08-22T08:29:53.222Z,72.88
2022-08-22T08:30:53.244Z,73.46
2022-08-22T08:33:24.318Z,71.52
2022-08-22T08:33:57.292Z,71.52
2022-08-22T08:36:03.434Z,72.00
2022-08-22T08:37:01.342Z,72.14
2022-08-22T08:39:05.844Z,71.66
2022-08-22T08:40:05.475Z,71.78
2022-08-22T08:42:09.438Z,69.08
2022-08-22T08:43:10.879Z,68.88
2022-08-22T08:45:13.979Z,68.21
2022-08-22T08:46:13.507Z,68.69
2022-08-22T08:48:17.531Z,69.75
2022-08-22T08:49:17.556Z,69.46
2022-08-22T08:51:23.441Z,68.69
2022-08-22T08:52:21.611Z,68.98
2022-08-22T08:54:26.125Z,68.30
2022-08-22T08:55:25.676Z,68.43
2022-08-22T08:57:29.731Z,67.08
2022-08-22T08:58:29.760Z,67.27
2022-08-22T09:00:23.255Z,67.08
2022-08-22T09:01:27.513Z,67.27
2022-08-22T09:03:30.979Z,66.14
2022-08-22T09:04:26.784Z,65.37
2022-08-22T09:06:31.281Z,65.17
2022-08-22T09:07:31.343Z,64.69
2022-08-22T09:09:34.876Z,64.50
2022-08-22T09:10:34.893Z,64.01
2022-08-22T09:12:41.669Z,63.53
2022-08-22T09:13:40.858Z,63.72
2022-08-22T09:15:42.991Z,62.46
2022-08-22T09:16:46.307Z,62.07
2022-08-22T09:18:47.511Z,62.66
2022-08-22T09:19:47.066Z,61.43
2022-08-22T09:21:51.096Z,61.04
2022-08-22T09:22:51.126Z,60.94
2022-08-22T09:24:56.114Z,60.55
2022-08-22T09:25:55.174Z,60.46
2022-08-22T09:27:59.326Z,61.14
2022-08-22T09:28:59.227Z,61.46
2022-08-22T09:31:03.724Z,58.94
2022-08-22T09:32:03.283Z,59.42
2022-08-22T09:34:07.341Z,58.67
2022-08-22T09:35:07.356Z,58.87
2022-08-22T09:37:14.208Z,57.32
2022-08-22T09:38:11.410Z,57.03
2022-08-22T09:40:04.385Z,54.80
2022-08-22T09:41:04.391Z,55.38
2022-08-22T09:43:08.893Z,56.71
2022-08-22T09:44:08.459Z,56.64
2022-08-22T09:45:08.479Z,56.35
2022-08-22T09:46:08.511Z,56.45
2022-08-22T09:47:08.541Z,56.76
2022-08-22T09:48:08.569Z,56.09
2022-08-22T09:49:08.606Z,57.25
2022-08-22T09:50:08.638Z,56.50
2022-08-22T09:51:31.822Z,55.33
2022-08-22T09:52:15.218Z,54.17
2022-08-22T09:53:08.733Z,53.91
2022-08-22T09:54:08.778Z,53.88
2022-08-22T09:55:08.830Z,53.81
2022-08-22T09:56:11.560Z,53.61
2022-08-22T09:57:08.864Z,52.52
2022-08-22T09:58:11.442Z,53.32
2022-08-22T09:59:09.788Z,52.94
2022-08-22T10:00:08.963Z,52.64
2022-08-22T10:01:09.055Z,53.52
2022-08-22T10:02:15.474Z,52.55
2022-08-22T10:03:09.061Z,50.99
2022-08-22T10:04:09.109Z,52.45
2022-08-22T10:05:09.136Z,52.35
2022-08-22T10:06:09.276Z,53.54
2022-08-22T10:07:11.914Z,52.47
2022-08-22T10:08:11.443Z,52.37
2022-08-22T10:09:09.331Z,52.37
2022-08-22T10:10:09.293Z,51.31
2022-08-22T10:11:09.327Z,51.70
2022-08-22T10:12:12.822Z,51.23
2022-08-22T10:13:10.432Z,51.14
2022-08-22T10:14:09.428Z,50.26
2022-08-22T10:15:09.461Z,49.58
2022-08-22T10:16:09.492Z,49.39
2022-08-22T10:17:09.528Z,49.66
2022-08-22T10:18:10.433Z,50.24
2022-08-22T10:19:09.592Z,50.24
2022-08-22T10:20:09.624Z,50.43
2022-08-22T10:21:09.658Z,50.56
2022-08-22T10:22:09.693Z,48.80
2022-08-22T10:23:09.729Z,49.68
2022-08-22T10:24:09.758Z,50.16
2022-08-22T10:25:10.326Z,50.36
2022-08-22T10:26:09.830Z,49.87
2022-08-22T10:27:09.862Z,48.90
2022-08-22T10:28:10.557Z,49.39
2022-08-22T10:29:09.929Z,49.61
2022-08-22T10:30:09.961Z,49.68
2022-08-22T10:31:09.998Z,48.90
2022-08-22T10:32:13.959Z,48.90
2022-08-22T10:33:12.063Z,48.90
2022-08-22T10:34:10.097Z,48.68
2022-08-22T10:35:10.125Z,49.10
2022-08-22T10:36:12.039Z,49.68
2022-08-22T10:37:10.255Z,49.68
2022-08-22T10:38:10.705Z,49.87
2022-08-22T10:39:11.781Z,49.71
2022-08-22T10:40:10.377Z,49.12
2022-08-22T10:41:10.336Z,48.15
2022-08-22T10:42:10.367Z,48.05
2022-08-22T10:43:10.411Z,48.83
2022-08-22T10:44:10.933Z,48.73
2022-08-22T10:45:10.466Z,49.80
2022-08-22T10:46:12.532Z,50.12
2022-08-22T10:47:10.533Z,49.05
2022-08-22T10:48:10.579Z,47.78
2022-08-22T10:49:10.607Z,47.39
2022-08-22T10:50:10.860Z,47.20
2022-08-22T10:51:10.669Z,46.61
2022-08-22T10:52:15.567Z,47.61
2022-08-22T10:53:10.758Z,47.61
2022-08-22T10:54:10.782Z,46.51
2022-08-22T10:55:10.811Z,47.20
2022-08-22T10:56:10.843Z,46.61
2022-08-22T10:57:10.875Z,47.10
2022-08-22T10:58:10.913Z,47.20
2022-08-22T10:59:10.942Z,46.32
2022-08-22T11:00:10.974Z,46.81
2022-08-22T11:01:38.539Z,47.30
2022-08-22T11:02:11.045Z,47.00
2022-08-22T11:03:14.514Z,46.71
2022-08-22T11:04:12.277Z,46.61
2022-08-22T11:05:11.147Z,46.54
2022-08-22T11:06:12.788Z,45.47
2022-08-22T11:07:11.208Z,45.25
2022-08-22T11:08:11.246Z,45.95
2022-08-22T11:09:11.284Z,46.23
2022-08-22T11:10:11.316Z,45.28
2022-08-22T11:11:11.347Z,46.05
2022-08-22T11:12:11.381Z,45.57
2022-08-22T11:13:11.416Z,45.95
2022-08-22T11:14:11.455Z,46.47
2022-08-22T11:15:11.481Z,45.29
2022-08-22T11:16:11.515Z,45.00
2022-08-22T11:17:27.942Z,44.71
2022-08-22T11:18:13.018Z,44.79
2022-08-22T11:19:15.047Z,44.79
2022-08-22T11:20:11.652Z,45.28
2022-08-22T11:21:11.682Z,45.08
2022-08-22T11:22:11.716Z,45.57
2022-08-22T11:23:12.236Z,44.79
2022-08-22T11:24:19.975Z,44.89
2022-08-22T11:25:11.816Z,44.67
2022-08-22T11:26:11.848Z,44.76
2022-08-22T11:27:13.008Z,45.25
2022-08-22T11:28:11.920Z,45.94
2022-08-22T11:29:14.136Z,46.54
2022-08-22T11:30:18.307Z,46.54
2022-08-22T11:31:12.018Z,45.37
2022-08-22T11:32:12.075Z,44.79
2022-08-22T11:33:13.669Z,45.18
2022-08-22T11:34:12.120Z,45.78
2022-08-22T11:35:12.151Z,45.00
2022-08-22T11:36:12.199Z,45.39
2022-08-22T11:37:12.315Z,44.81
2022-08-22T11:38:12.264Z,44.62
2022-08-22T11:39:18.006Z,45.10
2022-08-22T11:40:12.362Z,44.52
2022-08-22T11:41:12.352Z,44.81
2022-08-22T11:42:12.387Z,45.20
2022-08-22T11:43:18.251Z,44.71
2022-08-22T11:44:12.452Z,44.42
2022-08-22T11:45:16.257Z,44.62
2022-08-22T11:46:12.524Z,44.81
2022-08-22T11:47:12.554Z,45.29
2022-08-22T11:48:12.587Z,44.81
2022-08-22T11:49:12.629Z,44.44
2022-08-22T11:50:13.543Z,43.74
2022-08-22T11:51:13.546Z,44.03
2022-08-22T11:52:12.727Z,44.81
2022-08-22T11:53:12.772Z,44.93
2022-08-22T11:54:12.788Z,43.35
2022-08-22T11:55:12.823Z,43.44
2022-08-22T11:56:12.854Z,43.91
2022-08-22T11:57:12.887Z,43.81
2022-08-22T11:58:12.922Z,44.49
2022-08-22T11:59:12.961Z,44.69
2022-08-22T12:00:12.991Z,45.64
2022-08-22T12:01:17.240Z,45.67
2022-08-22T12:02:13.105Z,45.35
2022-08-22T12:03:13.567Z,45.15
2022-08-22T12:04:13.126Z,45.25
2022-08-22T12:05:20.085Z,46.23
2022-08-22T12:06:13.187Z,46.03
2022-08-22T12:07:13.225Z,45.74
2022-08-22T12:08:13.255Z,45.64
2022-08-22T12:09:13.306Z,45.06
2022-08-22T12:10:13.745Z,44.76
2022-08-22T12:11:13.356Z,45.15
2022-08-22T12:12:13.391Z,45.45
2022-08-22T12:13:13.423Z,45.94
2022-08-22T12:14:13.455Z,44.86
2022-08-22T12:15:13.487Z,44.86
2022-08-22T12:16:13.535Z,45.28
2022-08-22T12:17:13.609Z,45.95
2022-08-22T12:18:20.045Z,45.47
2022-08-22T12:19:13.615Z,44.40
2022-08-22T12:20:16.709Z,44.69
2022-08-22T12:21:13.688Z,44.40
2022-08-22T12:22:13.722Z,45.28
2022-08-22T12:23:13.755Z,45.28
2022-08-22T12:24:19.236Z,45.18
2022-08-22T12:25:13.822Z,45.28
2022-08-22T12:26:13.861Z,44.89
2022-08-22T12:27:13.891Z,44.69
2022-08-22T12:28:13.932Z,44.79
2022-08-22T12:29:15.427Z,46.05
2022-08-22T12:30:14.396Z,44.98
2022-08-22T12:31:14.016Z,45.18
2022-08-22T12:32:14.055Z,44.89
2022-08-22T12:33:20.755Z,44.49
2022-08-22T12:34:14.122Z,44.40
2022-08-22T12:35:14.560Z,44.40
2022-08-22T12:36:18.340Z,44.69
2022-08-22T12:37:14.222Z,44.79
2022-08-22T12:38:28.166Z,44.89
2022-08-22T12:39:14.287Z,44.79
2022-08-22T12:40:14.489Z,44.79
2022-08-22T12:41:14.351Z,44.69
2022-08-22T12:42:14.387Z,44.20
2022-08-22T12:43:14.419Z,43.81
2022-08-22T12:44:16.996Z,44.40
2022-08-22T12:45:14.486Z,44.69
2022-08-22T12:46:14.525Z,45.08
2022-08-22T12:47:14.555Z,45.00
2022-08-22T12:48:14.588Z,44.32
2022-08-22T12:49:14.624Z,44.32
2022-08-22T12:50:14.657Z,44.73
2022-08-22T12:51:17.762Z,44.64
2022-08-22T12:52:14.720Z,43.95
2022-08-22T12:53:18.262Z,43.37
2022-08-22T12:54:14.793Z,43.00
2022-08-22T12:55:14.823Z,42.80
2022-08-22T12:56:14.857Z,42.51
2022-08-22T12:57:23.711Z,42.61
2022-08-22T12:58:14.925Z,42.51
2022-08-22T12:59:14.960Z,42.80
2022-08-22T13:00:14.990Z,42.51
2022-08-22T13:01:15.103Z,42.02
2022-08-22T13:02:15.062Z,42.44
2022-08-22T13:03:15.095Z,42.44
2022-08-22T13:04:32.390Z,41.46
2022-08-22T13:05:19.646Z,41.66
2022-08-22T13:06:15.264Z,41.36
2022-08-22T13:07:15.231Z,41.36
2022-08-22T13:08:17.384Z,40.47
2022-08-22T13:09:15.301Z,41.25
2022-08-22T13:10:17.479Z,42.32
2022-08-22T13:11:23.352Z,43.19
2022-08-22T13:12:15.406Z,42.71
2022-08-22T13:13:15.439Z,42.83
2022-08-22T13:14:19.546Z,42.24
2022-08-22T13:15:15.509Z,41.56
2022-08-22T13:16:15.563Z,41.95
2022-08-22T13:17:24.168Z,42.44
2022-08-22T13:18:29.938Z,42.36
2022-08-22T13:19:15.647Z,42.36
2022-08-22T13:20:15.681Z,41.28
2022-08-22T13:21:15.714Z,40.53
2022-08-22T13:22:15.754Z,39.92
2022-08-22T13:23:15.784Z,40.11
2022-08-22T13:24:16.955Z,40.60
2022-08-22T13:25:15.853Z,40.50
2022-08-22T13:26:16.397Z,40.89
2022-08-22T13:27:15.924Z,40.01
2022-08-22T13:28:15.964Z,40.89
2022-08-22T13:29:25.769Z,40.21
2022-08-22T13:30:16.032Z,40.60
2022-08-22T13:31:16.078Z,40.60
2022-08-22T13:32:16.100Z,40.41
2022-08-22T13:33:16.135Z,39.82
2022-08-22T13:34:16.172Z,39.92
2022-08-22T13:35:16.207Z,40.31
2022-08-22T13:36:16.241Z,40.80
2022-08-22T13:37:16.275Z,41.09
2022-08-22T13:38:16.313Z,40.92
2022-08-22T13:39:16.341Z,41.31
2022-08-22T13:40:16.411Z,41.41
2022-08-22T13:41:16.418Z,41.89
2022-08-22T13:42:20.245Z,40.82
2022-08-22T13:43:16.488Z,41.99
2022-08-22T13:44:16.527Z,41.60
2022-08-22T13:45:16.555Z,42.50
2022-08-22T13:46:16.594Z,41.42
2022-08-22T13:47:16.664Z,40.74
2022-08-22T13:48:16.661Z,40.55
2022-08-22T13:49:16.703Z,40.35
2022-08-22T13:50:16.736Z,40.17
2022-08-22T13:51:16.769Z,40.25
2022-08-22T13:52:30.044Z,39.78
2022-08-22T13:53:16.843Z,39.86
2022-08-22T13:54:16.876Z,39.98
2022-08-22T13:55:16.911Z,38.81
2022-08-22T13:56:16.951Z,38.71
2022-08-22T13:57:16.989Z,39.00
2022-08-22T13:58:17.022Z,39.49
2022-08-22T13:59:34.247Z,40.27
2022-08-22T14:00:28.994Z,40.68
2022-08-22T14:01:17.553Z,39.80
2022-08-22T14:02:18.168Z,39.61
2022-08-22T14:03:17.200Z,38.63
2022-08-22T14:04:28.375Z,38.81
2022-08-22T14:05:17.271Z,39.29
2022-08-22T14:06:38.131Z,39.49
2022-08-22T14:07:17.344Z,39.98
2022-08-22T14:08:18.523Z,38.81
2022-08-22T14:09:17.419Z,39.29